NCAR-RAP Real-Time Weather Data

Output produced by METARs form (10 April 2020  07:28 UTC)
found at http://weather.rap.ucar.edu/surface/
 
KCRW 100654Z 25006KT 10SM BKN080 OVC100 04/M01 A2978 RMK AO2 SLP084 T00391006